sensor_id;sensor_type;location;lat;lon;timestamp;P1;durP1;ratioP1;P2;durP2;ratioP2
78856;SDS011;68207;50.078;19.936;2023-03-01T00:01:55;64.50;;;32.30;;
78856;SDS011;68207;50.078;19.936;2023-03-01T00:04:20;67.60;;;35.90;;
78856;SDS011;68207;50.078;19.936;2023-03-01T00:06:46;67.40;;;34.00;;
78856;SDS011;68207;50.078;19.936;2023-03-01T00:09:12;64.10;;;33.90;;
78856;SDS011;68207;50.078;19.936;2023-03-01T00:11:41;64.60;;;35.30;;
78856;SDS011;68207;50.078;19.936;2023-03-01T00:14:06;60.60;;;32.90;;
78856;SDS011;68207;50.078;19.936;2023-03-01T00:16:33;57.50;;;33.50;;
78856;SDS011;68207;50.078;19.936;2023-03-01T00:19:00;63.70;;;31.60;;
78856;SDS011;68207;50.078;19.936;2023-03-01T00:21:25;61.40;;;33.20;;
78856;SDS011;68207;50.078;19.936;2023-03-01T00:23:52;58.60;;;30.80;;
78856;SDS011;68207;50.078;19.936;2023-03-01T00:26:18;58.80;;;30.30;;
78856;SDS011;68207;50.078;19.936;2023-03-01T00:28:45;53.30;;;28.10;;
78856;SDS011;68207;50.078;19.936;2023-03-01T00:31:13;57.10;;;28.70;;
78856;SDS011;68207;50.078;19.936;2023-03-01T00:33:40;54.10;;;27.50;;
78856;SDS011;68207;50.078;19.936;2023-03-01T00:36:07;51.90;;;26.80;;
78856;SDS011;68207;50.078;19.936;2023-03-01T00:38:34;47.10;;;24.50;;
78856;SDS011;68207;50.078;19.936;2023-03-01T00:41:04;45.70;;;23.00;;
78856;SDS011;68207;50.078;19.936;2023-03-01T00:43:31;51.20;;;26.20;;
78856;SDS011;68207;50.078;19.936;2023-03-01T00:46:01;51.70;;;26.70;;
78856;SDS011;68207;50.078;19.936;2023-03-01T00:48:28;41.20;;;22.20;;
78856;SDS011;68207;50.078;19.936;2023-03-01T00:50:53;69.60;;;37.30;;
78856;SDS011;68207;50.078;19.936;2023-03-01T00:53:18;55.00;;;31.10;;
78856;SDS011;68207;50.078;19.936;2023-03-01T00:55:44;57.80;;;31.30;;
78856;SDS011;68207;50.078;19.936;2023-03-01T00:58:09;59.90;;;31.10;;
78856;SDS011;68207;50.078;19.936;2023-03-01T01:00:35;68.50;;;34.00;;
78856;SDS011;68207;50.078;19.936;2023-03-01T01:03:00;61.20;;;32.20;;
78856;SDS011;68207;50.078;19.936;2023-03-01T01:05:26;55.80;;;30.90;;
78856;SDS011;68207;50.078;19.936;2023-03-01T01:07:51;54.10;;;29.40;;
78856;SDS011;68207;50.078;19.936;2023-03-01T01:10:16;57.40;;;29.30;;
78856;SDS011;68207;50.078;19.936;2023-03-01T01:12:45;55.50;;;28.50;;
78856;SDS011;68207;50.078;19.936;2023-03-01T01:15:11;50.80;;;26.90;;
78856;SDS011;68207;50.078;19.936;2023-03-01T01:17:39;54.80;;;27.90;;
78856;SDS011;68207;50.078;19.936;2023-03-01T01:20:05;50.30;;;27.10;;
78856;SDS011;68207;50.078;19.936;2023-03-01T01:22:32;45.40;;;25.70;;
78856;SDS011;68207;50.078;19.936;2023-03-01T01:24:57;50.50;;;28.50;;
78856;SDS011;68207;50.078;19.936;2023-03-01T01:27:23;64.10;;;32.00;;
78856;SDS011;68207;50.078;19.936;2023-03-01T01:29:48;52.50;;;28.40;;
78856;SDS011;68207;50.078;19.936;2023-03-01T01:32:14;55.70;;;30.80;;
78856;SDS011;68207;50.078;19.936;2023-03-01T01:34:39;62.30;;;32.30;;
78856;SDS011;68207;50.078;19.936;2023-03-01T01:37:05;58.10;;;31.80;;
78856;SDS011;68207;50.078;19.936;2023-03-01T01:39:32;61.90;;;31.30;;
78856;SDS011;68207;50.078;19.936;2023-03-01T01:41:59;55.70;;;30.30;;
78856;SDS011;68207;50.078;19.936;2023-03-01T01:44:26;52.70;;;28.60;;
78856;SDS011;68207;50.078;19.936;2023-03-01T01:46:54;58.30;;;29.10;;
78856;SDS011;68207;50.078;19.936;2023-03-01T01:49:23;55.80;;;29.30;;
78856;SDS011;68207;50.078;19.936;2023-03-01T01:52:39;57.40;;;29.50;;
78856;SDS011;68207;50.078;19.936;2023-03-01T01:55:07;48.60;;;27.20;;
78856;SDS011;68207;50.078;19.936;2023-03-01T01:57:37;41.40;;;23.50;;
78856;SDS011;68207;50.078;19.936;2023-03-01T02:00:09;50.00;;;25.90;;
78856;SDS011;68207;50.078;19.936;2023-03-01T02:02:41;46.40;;;26.90;;
78856;SDS011;68207;50.078;19.936;2023-03-01T02:05:17;35.60;;;18.80;;
78856;SDS011;68207;50.078;19.936;2023-03-01T02:07:54;41.60;;;20.90;;
78856;SDS011;68207;50.078;19.936;2023-03-01T02:10:21;42.80;;;22.30;;
78856;SDS011;68207;50.078;19.936;2023-03-01T02:12:48;59.90;;;32.60;;
78856;SDS011;68207;50.078;19.936;2023-03-01T02:15:14;49.60;;;29.30;;
78856;SDS011;68207;50.078;19.936;2023-03-01T02:17:39;55.30;;;29.60;;
78856;SDS011;68207;50.078;19.936;2023-03-01T02:20:16;52.90;;;29.60;;
78856;SDS011;68207;50.078;19.936;2023-03-01T02:23:10;54.70;;;28.70;;
78856;SDS011;68207;50.078;19.936;2023-03-01T02:25:46;51.30;;;29.30;;
78856;SDS011;68207;50.078;19.936;2023-03-01T02:28:22;48.20;;;26.00;;
78856;SDS011;68207;50.078;19.936;2023-03-01T02:30:50;46.90;;;26.20;;
78856;SDS011;68207;50.078;19.936;2023-03-01T02:33:35;44.40;;;23.40;;
78856;SDS011;68207;50.078;19.936;2023-03-01T02:36:10;53.40;;;28.00;;
78856;SDS011;68207;50.078;19.936;2023-03-01T02:38:41;43.20;;;24.10;;
78856;SDS011;68207;50.078;19.936;2023-03-01T02:41:07;38.50;;;20.70;;
78856;SDS011;68207;50.078;19.936;2023-03-01T02:43:35;42.30;;;23.50;;
78856;SDS011;68207;50.078;19.936;2023-03-01T02:46:06;38.40;;;21.00;;
78856;SDS011;68207;50.078;19.936;2023-03-01T02:48:40;32.50;;;17.50;;
78856;SDS011;68207;50.078;19.936;2023-03-01T02:51:19;38.60;;;20.40;;
78856;SDS011;68207;50.078;19.936;2023-03-01T02:54:11;41.80;;;24.10;;
78856;SDS011;68207;50.078;19.936;2023-03-01T02:56:43;55.00;;;29.40;;
78856;SDS011;68207;50.078;19.936;2023-03-01T02:59:13;56.90;;;30.10;;
78856;SDS011;68207;50.078;19.936;2023-03-01T03:01:39;62.50;;;31.70;;
78856;SDS011;68207;50.078;19.936;2023-03-01T03:04:05;59.50;;;30.40;;
78856;SDS011;68207;50.078;19.936;2023-03-01T03:06:32;55.00;;;30.10;;
78856;SDS011;68207;50.078;19.936;2023-03-01T03:08:58;53.80;;;29.10;;
78856;SDS011;68207;50.078;19.936;2023-03-01T03:11:24;52.50;;;28.60;;
78856;SDS011;68207;50.078;19.936;2023-03-01T03:13:50;55.00;;;27.30;;
78856;SDS011;68207;50.078;19.936;2023-03-01T03:16:17;55.50;;;30.60;;
78856;SDS011;68207;50.078;19.936;2023-03-01T03:18:42;51.20;;;27.10;;
78856;SDS011;68207;50.078;19.936;2023-03-01T03:21:08;55.50;;;29.00;;
78856;SDS011;68207;50.078;19.936;2023-03-01T03:23:36;46.10;;;24.00;;
78856;SDS011;68207;50.078;19.936;2023-03-01T03:26:02;41.60;;;22.70;;
78856;SDS011;68207;50.078;19.936;2023-03-01T03:28:32;44.50;;;24.10;;
78856;SDS011;68207;50.078;19.936;2023-03-01T03:30:58;48.10;;;24.40;;
78856;SDS011;68207;50.078;19.936;2023-03-01T03:33:28;62.20;;;32.50;;
78856;SDS011;68207;50.078;19.936;2023-03-01T03:35:54;48.50;;;27.70;;
78856;SDS011;68207;50.078;19.936;2023-03-01T03:38:20;52.70;;;28.20;;
78856;SDS011;68207;50.078;19.936;2023-03-01T03:40:51;54.60;;;28.70;;
78856;SDS011;68207;50.078;19.936;2023-03-01T03:43:26;56.30;;;29.90;;
78856;SDS011;68207;50.078;19.936;2023-03-01T03:45:52;57.10;;;29.50;;
78856;SDS011;68207;50.078;19.936;2023-03-01T03:48:19;48.30;;;25.50;;
78856;SDS011;68207;50.078;19.936;2023-03-01T03:51:03;44.30;;;24.60;;
78856;SDS011;68207;50.078;19.936;2023-03-01T03:53:30;42.90;;;23.70;;
78856;SDS011;68207;50.078;19.936;2023-03-01T03:55:56;47.80;;;25.50;;
78856;SDS011;68207;50.078;19.936;2023-03-01T03:58:23;43.70;;;24.80;;
78856;SDS011;68207;50.078;19.936;2023-03-01T04:00:52;41.40;;;22.60;;
78856;SDS011;68207;50.078;19.936;2023-03-01T04:03:21;40.10;;;22.80;;
78856;SDS011;68207;50.078;19.936;2023-03-01T04:05:47;41.90;;;20.60;;
78856;SDS011;68207;50.078;19.936;2023-03-01T04:08:18;35.60;;;19.70;;
78856;SDS011;68207;50.078;19.936;2023-03-01T04:10:50;40.30;;;20.80;;
78856;SDS011;68207;50.078;19.936;2023-03-01T04:13:18;55.90;;;28.40;;
78856;SDS011;68207;50.078;19.936;2023-03-01T04:15:49;44.10;;;24.80;;
78856;SDS011;68207;50.078;19.936;2023-03-01T04:18:16;46.80;;;24.70;;
78856;SDS011;68207;50.078;19.936;2023-03-01T04:20:43;45.90;;;25.10;;
78856;SDS011;68207;50.078;19.936;2023-03-01T04:23:11;48.40;;;24.90;;
78856;SDS011;68207;50.078;19.936;2023-03-01T04:25:41;46.50;;;25.50;;
78856;SDS011;68207;50.078;19.936;2023-03-01T04:28:19;44.20;;;24.80;;
78856;SDS011;68207;50.078;19.936;2023-03-01T04:33:11;34.90;;;20.80;;
78856;SDS011;68207;50.078;19.936;2023-03-01T04:35:37;36.30;;;21.20;;
78856;SDS011;68207;50.078;19.936;2023-03-01T04:38:03;41.10;;;21.80;;
78856;SDS011;68207;50.078;19.936;2023-03-01T04:40:30;41.30;;;20.90;;
78856;SDS011;68207;50.078;19.936;2023-03-01T04:42:55;33.00;;;18.10;;
78856;SDS011;68207;50.078;19.936;2023-03-01T04:45:21;40.50;;;20.80;;
78856;SDS011;68207;50.078;19.936;2023-03-01T04:47:46;37.40;;;19.70;;
78856;SDS011;68207;50.078;19.936;2023-03-01T04:50:13;50.50;;;27.50;;
78856;SDS011;68207;50.078;19.936;2023-03-01T04:52:40;42.30;;;24.90;;
78856;SDS011;68207;50.078;19.936;2023-03-01T04:55:07;47.50;;;25.10;;
78856;SDS011;68207;50.078;19.936;2023-03-01T04:57:33;49.20;;;26.20;;
78856;SDS011;68207;50.078;19.936;2023-03-01T04:59:58;51.00;;;28.10;;
78856;SDS011;68207;50.078;19.936;2023-03-01T05:02:23;48.80;;;26.70;;
78856;SDS011;68207;50.078;19.936;2023-03-01T05:04:49;50.20;;;26.10;;
78856;SDS011;68207;50.078;19.936;2023-03-01T05:07:14;51.70;;;26.70;;
78856;SDS011;68207;50.078;19.936;2023-03-01T05:09:44;52.90;;;28.30;;
78856;SDS011;68207;50.078;19.936;2023-03-01T05:12:13;56.40;;;26.20;;
78856;SDS011;68207;50.078;19.936;2023-03-01T05:14:39;46.70;;;23.80;;
78856;SDS011;68207;50.078;19.936;2023-03-01T05:17:05;47.50;;;25.90;;
78856;SDS011;68207;50.078;19.936;2023-03-01T05:19:30;63.70;;;31.30;;
78856;SDS011;68207;50.078;19.936;2023-03-01T05:21:56;46.60;;;28.70;;
78856;SDS011;68207;50.078;19.936;2023-03-01T05:24:31;57.10;;;30.60;;
78856;SDS011;68207;50.078;19.936;2023-03-01T05:26:59;59.30;;;29.50;;
78856;SDS011;68207;50.078;19.936;2023-03-01T05:29:26;54.00;;;29.50;;
78856;SDS011;68207;50.078;19.936;2023-03-01T05:31:53;56.70;;;28.00;;
78856;SDS011;68207;50.078;19.936;2023-03-01T05:34:33;57.10;;;29.30;;
78856;SDS011;68207;50.078;19.936;2023-03-01T05:37:00;44.90;;;24.10;;
78856;SDS011;68207;50.078;19.936;2023-03-01T05:39:27;48.90;;;25.30;;
78856;SDS011;68207;50.078;19.936;2023-03-01T05:41:55;55.30;;;27.40;;
78856;SDS011;68207;50.078;19.936;2023-03-01T05:46:47;50.20;;;22.10;;
78856;SDS011;68207;50.078;19.936;2023-03-01T05:49:12;51.70;;;26.60;;
78856;SDS011;68207;50.078;19.936;2023-03-01T05:51:42;47.70;;;24.30;;
78856;SDS011;68207;50.078;19.936;2023-03-01T05:54:09;49.40;;;25.30;;
78856;SDS011;68207;50.078;19.936;2023-03-01T05:56:35;47.90;;;24.70;;
78856;SDS011;68207;50.078;19.936;2023-03-01T05:59:02;50.20;;;27.10;;
78856;SDS011;68207;50.078;19.936;2023-03-01T06:01:33;46.50;;;24.40;;
78856;SDS011;68207;50.078;19.936;2023-03-01T06:03:59;48.10;;;25.20;;
78856;SDS011;68207;50.078;19.936;2023-03-01T06:06:24;63.00;;;32.20;;
78856;SDS011;68207;50.078;19.936;2023-03-01T06:08:50;59.20;;;29.70;;
78856;SDS011;68207;50.078;19.936;2023-03-01T06:11:16;59.20;;;29.30;;
78856;SDS011;68207;50.078;19.936;2023-03-01T06:13:44;62.30;;;34.00;;
78856;SDS011;68207;50.078;19.936;2023-03-01T06:16:10;62.80;;;31.50;;
78856;SDS011;68207;50.078;19.936;2023-03-01T06:18:36;59.90;;;32.40;;
78856;SDS011;68207;50.078;19.936;2023-03-01T06:21:03;39.00;;;21.30;;
78856;SDS011;68207;50.078;19.936;2023-03-01T06:23:28;39.80;;;21.90;;
78856;SDS011;68207;50.078;19.936;2023-03-01T06:25:54;30.50;;;17.40;;
78856;SDS011;68207;50.078;19.936;2023-03-01T06:28:19;41.20;;;21.70;;
78856;SDS011;68207;50.078;19.936;2023-03-01T06:30:45;29.10;;;16.40;;
78856;SDS011;68207;50.078;19.936;2023-03-01T06:33:10;30.20;;;17.50;;
78856;SDS011;68207;50.078;19.936;2023-03-01T06:35:36;28.50;;;17.60;;
78856;SDS011;68207;50.078;19.936;2023-03-01T06:38:02;38.30;;;21.20;;
78856;SDS011;68207;50.078;19.936;2023-03-01T06:40:29;31.90;;;18.00;;
78856;SDS011;68207;50.078;19.936;2023-03-01T06:42:55;36.50;;;21.60;;
78856;SDS011;68207;50.078;19.936;2023-03-01T06:45:21;34.20;;;19.60;;
78856;SDS011;68207;50.078;19.936;2023-03-01T06:47:46;31.70;;;16.60;;
78856;SDS011;68207;50.078;19.936;2023-03-01T06:50:13;46.60;;;26.10;;
78856;SDS011;68207;50.078;19.936;2023-03-01T06:52:39;36.50;;;21.30;;
78856;SDS011;68207;50.078;19.936;2023-03-01T06:55:04;43.60;;;24.50;;
78856;SDS011;68207;50.078;19.936;2023-03-01T06:57:30;33.20;;;20.10;;
78856;SDS011;68207;50.078;19.936;2023-03-01T06:59:56;37.20;;;21.40;;
78856;SDS011;68207;50.078;19.936;2023-03-01T07:02:21;39.00;;;22.70;;
78856;SDS011;68207;50.078;19.936;2023-03-01T07:04:50;37.70;;;20.60;;
78856;SDS011;68207;50.078;19.936;2023-03-01T07:07:17;33.80;;;19.90;;
78856;SDS011;68207;50.078;19.936;2023-03-01T07:09:43;45.40;;;26.10;;
78856;SDS011;68207;50.078;19.936;2023-03-01T07:12:13;42.90;;;26.50;;
78856;SDS011;68207;50.078;19.936;2023-03-01T07:14:38;56.00;;;30.90;;
78856;SDS011;68207;50.078;19.936;2023-03-01T07:17:04;57.40;;;31.40;;
78856;SDS011;68207;50.078;19.936;2023-03-01T07:19:29;42.70;;;26.40;;
78856;SDS011;68207;50.078;19.936;2023-03-01T07:21:54;40.60;;;23.90;;
78856;SDS011;68207;50.078;19.936;2023-03-01T07:24:20;42.40;;;25.90;;
78856;SDS011;68207;50.078;19.936;2023-03-01T07:26:50;42.20;;;24.60;;
78856;SDS011;68207;50.078;19.936;2023-03-01T07:29:17;54.60;;;32.50;;
78856;SDS011;68207;50.078;19.936;2023-03-01T07:31:43;52.20;;;31.10;;
78856;SDS011;68207;50.078;19.936;2023-03-01T07:34:09;55.20;;;31.30;;
78856;SDS011;68207;50.078;19.936;2023-03-01T07:36:35;38.70;;;24.60;;
78856;SDS011;68207;50.078;19.936;2023-03-01T07:39:01;53.50;;;32.10;;
78856;SDS011;68207;50.078;19.936;2023-03-01T07:41:28;34.30;;;22.40;;
78856;SDS011;68207;50.078;19.936;2023-03-01T07:43:54;54.20;;;30.40;;
78856;SDS011;68207;50.078;19.936;2023-03-01T07:46:19;54.90;;;34.20;;
78856;SDS011;68207;50.078;19.936;2023-03-01T07:48:45;45.00;;;27.90;;
78856;SDS011;68207;50.078;19.936;2023-03-01T07:51:11;51.20;;;30.80;;
78856;SDS011;68207;50.078;19.936;2023-03-01T07:53:36;37.90;;;22.50;;
78856;SDS011;68207;50.078;19.936;2023-03-01T07:56:20;39.80;;;24.60;;
78856;SDS011;68207;50.078;19.936;2023-03-01T07:58:46;48.40;;;29.70;;
78856;SDS011;68207;50.078;19.936;2023-03-01T08:01:14;55.40;;;32.40;;
78856;SDS011;68207;50.078;19.936;2023-03-01T08:03:42;43.90;;;26.60;;
78856;SDS011;68207;50.078;19.936;2023-03-01T08:06:09;48.60;;;31.00;;
78856;SDS011;68207;50.078;19.936;2023-03-01T08:11:01;42.90;;;27.00;;
78856;SDS011;68207;50.078;19.936;2023-03-01T08:13:28;45.90;;;26.50;;
78856;SDS011;68207;50.078;19.936;2023-03-01T08:15:54;48.30;;;28.70;;
78856;SDS011;68207;50.078;19.936;2023-03-01T08:18:20;47.50;;;27.10;;
78856;SDS011;68207;50.078;19.936;2023-03-01T08:20:46;39.30;;;25.70;;
78856;SDS011;68207;50.078;19.936;2023-03-01T08:23:11;35.20;;;23.50;;
78856;SDS011;68207;50.078;19.936;2023-03-01T08:25:37;31.70;;;23.00;;
78856;SDS011;68207;50.078;19.936;2023-03-01T08:28:03;33.90;;;21.80;;
78856;SDS011;68207;50.078;19.936;2023-03-01T08:30:29;33.50;;;22.30;;
78856;SDS011;68207;50.078;19.936;2023-03-01T08:32:55;42.10;;;23.90;;
78856;SDS011;68207;50.078;19.936;2023-03-01T08:35:20;44.20;;;28.00;;
78856;SDS011;68207;50.078;19.936;2023-03-01T08:37:47;41.20;;;28.10;;
78856;SDS011;68207;50.078;19.936;2023-03-01T08:40:12;44.90;;;28.60;;
78856;SDS011;68207;50.078;19.936;2023-03-01T08:42:38;37.80;;;23.30;;
78856;SDS011;68207;50.078;19.936;2023-03-01T08:45:05;37.10;;;23.30;;
78856;SDS011;68207;50.078;19.936;2023-03-01T08:47:31;32.00;;;21.50;;
78856;SDS011;68207;50.078;19.936;2023-03-01T08:49:58;36.00;;;24.70;;
78856;SDS011;68207;50.078;19.936;2023-03-01T08:52:24;39.70;;;23.60;;
78856;SDS011;68207;50.078;19.936;2023-03-01T08:54:49;34.40;;;22.70;;
78856;SDS011;68207;50.078;19.936;2023-03-01T08:57:14;28.60;;;20.20;;
78856;SDS011;68207;50.078;19.936;2023-03-01T08:59:40;26.80;;;19.30;;
78856;SDS011;68207;50.078;19.936;2023-03-01T09:02:06;27.90;;;18.20;;
78856;SDS011;68207;50.078;19.936;2023-03-01T09:04:37;39.30;;;22.60;;
78856;SDS011;68207;50.078;19.936;2023-03-01T09:07:02;24.00;;;16.00;;
78856;SDS011;68207;50.078;19.936;2023-03-01T09:09:28;29.10;;;19.20;;
78856;SDS011;68207;50.078;19.936;2023-03-01T09:11:53;19.70;;;14.30;;
78856;SDS011;68207;50.078;19.936;2023-03-01T09:14:18;28.20;;;20.00;;
78856;SDS011;68207;50.078;19.936;2023-03-01T09:16:44;30.10;;;20.10;;
78856;SDS011;68207;50.078;19.936;2023-03-01T09:19:10;28.00;;;19.30;;
78856;SDS011;68207;50.078;19.936;2023-03-01T09:21:40;23.10;;;17.50;;
78856;SDS011;68207;50.078;19.936;2023-03-01T09:24:06;27.70;;;18.40;;
78856;SDS011;68207;50.078;19.936;2023-03-01T09:26:36;24.30;;;17.00;;
78856;SDS011;68207;50.078;19.936;2023-03-01T09:29:01;20.00;;;14.80;;
78856;SDS011;68207;50.078;19.936;2023-03-01T09:31:27;28.30;;;19.10;;
78856;SDS011;68207;50.078;19.936;2023-03-01T09:33:53;21.90;;;14.10;;
78856;SDS011;68207;50.078;19.936;2023-03-01T09:36:20;22.40;;;15.90;;
78856;SDS011;68207;50.078;19.936;2023-03-01T09:38:47;25.80;;;16.10;;
78856;SDS011;68207;50.078;19.936;2023-03-01T09:44:07;25.10;;;16.30;;
78856;SDS011;68207;50.078;19.936;2023-03-01T09:46:40;22.10;;;14.50;;
78856;SDS011;68207;50.078;19.936;2023-03-01T09:49:12;20.90;;;14.70;;
78856;SDS011;68207;50.078;19.936;2023-03-01T09:51:42;22.90;;;16.10;;
78856;SDS011;68207;50.078;19.936;2023-03-01T09:54:13;21.80;;;15.50;;
78856;SDS011;68207;50.078;19.936;2023-03-01T09:59:25;25.30;;;17.20;;
78856;SDS011;68207;50.078;19.936;2023-03-01T10:02:21;31.10;;;19.40;;
78856;SDS011;68207;50.078;19.936;2023-03-01T10:04:54;24.30;;;16.60;;
78856;SDS011;68207;50.078;19.936;2023-03-01T10:10:10;28.50;;;19.80;;
78856;SDS011;68207;50.078;19.936;2023-03-01T10:12:56;25.50;;;16.80;;
78856;SDS011;68207;50.078;19.936;2023-03-01T10:15:25;25.70;;;17.10;;
78856;SDS011;68207;50.078;19.936;2023-03-01T10:18:02;23.10;;;16.00;;
78856;SDS011;68207;50.078;19.936;2023-03-01T10:23:11;21.00;;;14.60;;
78856;SDS011;68207;50.078;19.936;2023-03-01T10:31:20;22.50;;;16.60;;
78856;SDS011;68207;50.078;19.936;2023-03-01T10:33:52;25.20;;;15.00;;
78856;SDS011;68207;50.078;19.936;2023-03-01T10:36:20;18.60;;;14.20;;
78856;SDS011;68207;50.078;19.936;2023-03-01T10:38:55;22.50;;;15.90;;
78856;SDS011;68207;50.078;19.936;2023-03-01T10:41:23;20.00;;;14.30;;
78856;SDS011;68207;50.078;19.936;2023-03-01T10:43:51;20.70;;;12.90;;
78856;SDS011;68207;50.078;19.936;2023-03-01T10:46:28;19.10;;;12.60;;
78856;SDS011;68207;50.078;19.936;2023-03-01T10:49:27;17.60;;;12.70;;
78856;SDS011;68207;50.078;19.936;2023-03-01T10:51:50;17.70;;;13.20;;
78856;SDS011;68207;50.078;19.936;2023-03-01T10:54:25;15.70;;;12.30;;
78856;SDS011;68207;50.078;19.936;2023-03-01T10:57:00;16.20;;;12.20;;
78856;SDS011;68207;50.078;19.936;2023-03-01T10:59:28;17.40;;;12.40;;
78856;SDS011;68207;50.078;19.936;2023-03-01T11:02:01;16.30;;;11.20;;
78856;SDS011;68207;50.078;19.936;2023-03-01T11:04:56;14.70;;;11.70;;
78856;SDS011;68207;50.078;19.936;2023-03-01T11:07:30;14.20;;;10.40;;
78856;SDS011;68207;50.078;19.936;2023-03-01T11:10:11;17.20;;;10.90;;
78856;SDS011;68207;50.078;19.936;2023-03-01T11:12:40;14.20;;;10.00;;
78856;SDS011;68207;50.078;19.936;2023-03-01T11:15:08;12.80;;;9.50;;
78856;SDS011;68207;50.078;19.936;2023-03-01T11:17:46;16.00;;;11.30;;
78856;SDS011;68207;50.078;19.936;2023-03-01T11:23:25;15.10;;;11.60;;
78856;SDS011;68207;50.078;19.936;2023-03-01T11:25:31;14.20;;;11.00;;
78856;SDS011;68207;50.078;19.936;2023-03-01T11:28:00;14.80;;;11.60;;
78856;SDS011;68207;50.078;19.936;2023-03-01T11:33:29;17.10;;;11.80;;
78856;SDS011;68207;50.078;19.936;2023-03-01T11:38:56;14.10;;;11.10;;
78856;SDS011;68207;50.078;19.936;2023-03-01T11:41:28;18.70;;;14.20;;
78856;SDS011;68207;50.078;19.936;2023-03-01T11:44:00;19.10;;;13.50;;
78856;SDS011;68207;50.078;19.936;2023-03-01T11:49:16;20.50;;;14.20;;
78856;SDS011;68207;50.078;19.936;2023-03-01T12:06:55;23.30;;;16.10;;
78856;SDS011;68207;50.078;19.936;2023-03-01T12:25:51;17.70;;;14.00;;
78856;SDS011;68207;50.078;19.936;2023-03-01T12:31:20;20.30;;;14.70;;
78856;SDS011;68207;50.078;19.936;2023-03-01T12:36:53;18.60;;;13.30;;
78856;SDS011;68207;50.078;19.936;2023-03-01T12:39:34;14.80;;;11.00;;
78856;SDS011;68207;50.078;19.936;2023-03-01T12:42:18;20.50;;;13.40;;
78856;SDS011;68207;50.078;19.936;2023-03-01T12:45:09;19.20;;;12.90;;
78856;SDS011;68207;50.078;19.936;2023-03-01T12:50:32;14.80;;;11.80;;
78856;SDS011;68207;50.078;19.936;2023-03-01T12:53:04;12.30;;;9.70;;
78856;SDS011;68207;50.078;19.936;2023-03-01T12:55:31;13.30;;;10.00;;
78856;SDS011;68207;50.078;19.936;2023-03-01T13:09:19;15.00;;;12.20;;
78856;SDS011;68207;50.078;19.936;2023-03-01T13:11:52;15.40;;;11.50;;
78856;SDS011;68207;50.078;19.936;2023-03-01T13:16:46;15.30;;;11.50;;
78856;SDS011;68207;50.078;19.936;2023-03-01T13:21:46;15.20;;;11.80;;
78856;SDS011;68207;50.078;19.936;2023-03-01T13:24:35;18.20;;;13.20;;
78856;SDS011;68207;50.078;19.936;2023-03-01T13:32:28;21.00;;;14.20;;
78856;SDS011;68207;50.078;19.936;2023-03-01T13:35:01;19.80;;;13.30;;
78856;SDS011;68207;50.078;19.936;2023-03-01T13:37:29;17.30;;;13.70;;
78856;SDS011;68207;50.078;19.936;2023-03-01T13:39:58;19.00;;;14.80;;
78856;SDS011;68207;50.078;19.936;2023-03-01T13:42:31;18.40;;;14.00;;
78856;SDS011;68207;50.078;19.936;2023-03-01T13:44:57;15.80;;;13.00;;
78856;SDS011;68207;50.078;19.936;2023-03-01T13:47:22;15.40;;;13.10;;
78856;SDS011;68207;50.078;19.936;2023-03-01T13:49:50;19.50;;;14.40;;
78856;SDS011;68207;50.078;19.936;2023-03-01T13:52:35;15.40;;;12.60;;
78856;SDS011;68207;50.078;19.936;2023-03-01T13:55:06;18.90;;;13.00;;
78856;SDS011;68207;50.078;19.936;2023-03-01T13:58:00;16.80;;;11.90;;
78856;SDS011;68207;50.078;19.936;2023-03-01T14:03:04;15.90;;;12.60;;
78856;SDS011;68207;50.078;19.936;2023-03-01T14:05:41;16.40;;;12.50;;
78856;SDS011;68207;50.078;19.936;2023-03-01T14:08:22;16.40;;;11.50;;
78856;SDS011;68207;50.078;19.936;2023-03-01T14:18:47;16.00;;;13.30;;
78856;SDS011;68207;50.078;19.936;2023-03-01T14:21:19;14.20;;;11.10;;
78856;SDS011;68207;50.078;19.936;2023-03-01T14:23:45;16.90;;;12.20;;
78856;SDS011;68207;50.078;19.936;2023-03-01T14:26:11;17.10;;;11.90;;
78856;SDS011;68207;50.078;19.936;2023-03-01T14:28:37;16.00;;;11.60;;
78856;SDS011;68207;50.078;19.936;2023-03-01T14:31:35;17.20;;;11.70;;
78856;SDS011;68207;50.078;19.936;2023-03-01T14:34:02;16.50;;;11.00;;
78856;SDS011;68207;50.078;19.936;2023-03-01T14:36:28;15.00;;;10.50;;
78856;SDS011;68207;50.078;19.936;2023-03-01T14:38:56;16.50;;;11.50;;
78856;SDS011;68207;50.078;19.936;2023-03-01T14:41:29;15.80;;;11.90;;
78856;SDS011;68207;50.078;19.936;2023-03-01T14:44:02;17.40;;;12.20;;
78856;SDS011;68207;50.078;19.936;2023-03-01T14:46:33;16.70;;;11.40;;
78856;SDS011;68207;50.078;19.936;2023-03-01T14:49:23;16.30;;;11.80;;
78856;SDS011;68207;50.078;19.936;2023-03-01T14:51:53;16.60;;;10.30;;
78856;SDS011;68207;50.078;19.936;2023-03-01T14:57:02;14.90;;;10.20;;
78856;SDS011;68207;50.078;19.936;2023-03-01T14:59:28;16.30;;;11.60;;
78856;SDS011;68207;50.078;19.936;2023-03-01T15:01:55;18.50;;;12.10;;
78856;SDS011;68207;50.078;19.936;2023-03-01T15:04:22;17.00;;;11.40;;
78856;SDS011;68207;50.078;19.936;2023-03-01T15:06:51;15.40;;;11.60;;
78856;SDS011;68207;50.078;19.936;2023-03-01T15:09:19;17.00;;;12.20;;
78856;SDS011;68207;50.078;19.936;2023-03-01T15:11:44;15.70;;;11.10;;
78856;SDS011;68207;50.078;19.936;2023-03-01T15:14:36;15.40;;;10.90;;
78856;SDS011;68207;50.078;19.936;2023-03-01T15:17:15;16.90;;;10.60;;
78856;SDS011;68207;50.078;19.936;2023-03-01T15:20:06;16.80;;;12.00;;
78856;SDS011;68207;50.078;19.936;2023-03-01T15:22:43;16.90;;;11.10;;
78856;SDS011;68207;50.078;19.936;2023-03-01T15:25:20;16.10;;;11.20;;
78856;SDS011;68207;50.078;19.936;2023-03-01T15:27:48;17.00;;;11.70;;
78856;SDS011;68207;50.078;19.936;2023-03-01T15:30:26;18.60;;;12.50;;
78856;SDS011;68207;50.078;19.936;2023-03-01T15:33:47;14.50;;;11.40;;
78856;SDS011;68207;50.078;19.936;2023-03-01T15:35:48;20.10;;;12.50;;
78856;SDS011;68207;50.078;19.936;2023-03-01T15:38:35;19.60;;;13.10;;
78856;SDS011;68207;50.078;19.936;2023-03-01T15:41:22;14.90;;;12.20;;
78856;SDS011;68207;50.078;19.936;2023-03-01T15:43:48;14.40;;;11.20;;
78856;SDS011;68207;50.078;19.936;2023-03-01T15:46:22;14.40;;;12.20;;
78856;SDS011;68207;50.078;19.936;2023-03-01T15:48:52;16.40;;;11.90;;
78856;SDS011;68207;50.078;19.936;2023-03-01T15:51:32;19.20;;;11.90;;
78856;SDS011;68207;50.078;19.936;2023-03-01T15:54:00;19.00;;;13.50;;
78856;SDS011;68207;50.078;19.936;2023-03-01T15:56:31;17.40;;;12.60;;
78856;SDS011;68207;50.078;19.936;2023-03-01T15:59:00;22.80;;;12.60;;
78856;SDS011;68207;50.078;19.936;2023-03-01T16:01:27;21.60;;;12.90;;
78856;SDS011;68207;50.078;19.936;2023-03-01T16:03:53;20.80;;;12.40;;
78856;SDS011;68207;50.078;19.936;2023-03-01T16:06:19;16.70;;;12.30;;
78856;SDS011;68207;50.078;19.936;2023-03-01T16:08:44;18.80;;;11.50;;
78856;SDS011;68207;50.078;19.936;2023-03-01T16:11:17;17.40;;;11.40;;
78856;SDS011;68207;50.078;19.936;2023-03-01T16:13:43;17.90;;;10.70;;